Wetterdaten für den Flughafen Lübeck Blankensee


ADDS - METARS form results Aviation Digital Data Service (ADDS) Output produced by METARs form (0914 UTC 20 November 2017)
found at http://www.aviationweather.gov/adds/metars/
 
EDDH 200850Z 24010KT 9999 -SHRA SCT007 BKN018CB 05/04 Q1014 NOSIG
TAF EDDH 200500Z 2006/2112 24005KT 9999 FEW020 SCT035 TEMPO 2006/2008 28012KT TEMPO 2009/2015 26012KT BKN012 PROB30 TEMPO 2010/2015 4500 -RADZ BKN009 FM201500 21005KT 7000 SCT004 BKN010 TEMPO 2015/2021 2500 -DZRA BKN004 FM202100 14003KT 5000 BR SCT003 BKN007 TEMPO 2021/2110 2000 -DZ OVC003

Nord: Hamburg, Lübeck
Ost: Schwerin, Rostock
Süd: Hannover
West: Bremen, Nordhloz

Copyright © 2016 Flugschule Hohensee